الصفحة الرئيسية
METAR-TAF:

METAR-TAF

مطار :

مطار دبي الدولي

إمارة دبي, الإمارات العربية المتحدة

دائرة عرض: 25-15-10N, خط طول: 055-21-52E, ارتفاع: 8 متر

مراقبة الطقس الحالي

تاريخ ووقت الإصدار 50 دقيقة قبل الساعة 06:00UTC
ريح 13 عقدة من الجنوب/الجنوب الغربي
درجة الحرارة 38°درجة مئوية
الرطوبة 35%
ضغط 1006 hPa
الرؤية: 5000 متر
غبار

METAR: OMDB 010600Z 21013KT 5000 DU NSC 38/20 Q1006 TEMPO 3000

زمن: 10:50 (06:50 UTC)

توقعات

تاريخ ووقت الإصدار 1ساعة و 51 دقيقة قبل الساعة 04:59UTC
التوقعات صالحة من01 الساعة 06 UTC إلى 02 الساعة 12 UTC
ريح 15 عقدة من الجنوب/الجنوب الغربي
الرؤية: 8000 متر
نظرية الاحتمالات 30%
من 01 الساعة 06 UTC إلى 01 الساعة 09 UTC
الرؤية: 3000 متر
غبار
أصبح
من 01 الساعة 07 UTC إلى 01 الساعة 09 UTC
ريح 13 عقدة من الغرب
أصبح
من 01 الساعة 15 UTC إلى 01 الساعة 17 UTC
ريح 5 عقدة من الجنوب
أصبح
من 02 الساعة 05 UTC إلى 02 الساعة 07 UTC
ريح 12 عقدة من الغرب

TAF: OMDB 010459Z 0106/0212 21015KT 8000 NSC PROB30 0106/0109 3000 DU BECMG 0107/0109 28013KT BECMG 0115/0117 17005KT BECMG 0205/0207 28012KT

أرصاد الطقس والتوقعات من أكثر من 4000 مطار (تقارير الطقس للمطار METAR والتنبؤ بالطقس بالمطارTAF).

المحطات المتاحة هي النقط الصفراء والحمراء على الخريطة.

حرك المؤشر فوق النقطة لمعرفة اسم المحطة.

ثم انقر لمعرفة أرصاد وتوقعات الطقس.

لتغيير الخارطة: اضغط على الأزرار الخضراء مع رمز الصليب الأسود للتكبير. على الزر الأخضر مع شرطة للتصغير، أو على الأسهم الخضراء للخرائط المجاورة.


METAR-TAF: